Terminal Aerodrome Forecast
Issued by NWS

Home | Current Version | Previous Version | Graphics & Text | Print | Product List | Glossary On
Versions: 1 2 3 4 5 6 7 8 9 10 11 12 13 14 15 16 17 18 19 20 21 22 23 24 25 26 27 28 29 30 31 32 33 34 35
000
FTUS45 KGGW 011500 CCA
TAFOLF
TAF COR
KOLF 011502Z 0115/0212 VRB06KT 2SM FU BKN015
     FM011800 VRB05KT P6SM SCT020 SCT100
     FM011900 VRB04KT P6SM VCTS BKN060CB
     FM020000 34011KT P6SM -SHRA BKN080
     FM020600 VRB04KT P6SM BKN150=

USA.gov is the U.S. government's official web portal to all federal, state and local government web resources and services.